Time;durP1;ratioP1;P1;durP2;ratioP2;P2;SDS_P1;SDS_P2;PMS_P1;PMS_P2;Temp;Humidity;BMP_temperature;BMP_pressure;BME280_temperature;BME280_humidity;BME280_pressure;Samples;Min_cycle;Max_cycle;Signal;HPM_P1;HPM_P2
2022/11/09 00:00:15;;;;;;;42.90;26.00;;;;;;;10.10;81.27;97695.97;5043387;28;20190;-77
2022/11/09 00:02:42;;;;;;;41.07;24.97;;;;;;;10.11;81.44;97707.19;5027748;28;20278;-76
2022/11/09 00:05:09;;;;;;;37.93;25.53;;;;;;;10.04;81.24;97696.16;5026745;28;20686;-76
2022/11/09 00:07:36;;;;;;;41.57;26.87;;;;;;;10.02;81.77;97712.59;5028415;28;20241;-76
2022/11/09 00:10:03;;;;;;;51.60;28.50;;;;;;;9.90;82.09;97715.59;5028975;28;20205;-77
2022/11/09 00:12:30;;;;;;;46.93;26.60;;;;;;;9.73;82.39;97705.78;5028184;28;20200;-76
2022/11/09 00:14:57;;;;;;;42.63;26.03;;;;;;;9.80;81.66;97697.81;5027438;28;20226;-76
2022/11/09 00:17:24;;;;;;;41.70;25.87;;;;;;;9.92;81.35;97706.03;5027658;28;20811;-76
2022/11/09 00:19:51;;;;;;;44.53;25.67;;;;;;;9.98;80.74;97701.53;5028643;28;20187;-77
2022/11/09 00:22:18;;;;;;;45.33;26.87;;;;;;;9.78;81.39;97693.56;5027494;28;20574;-76
2022/11/09 00:24:44;;;;;;;49.30;26.80;;;;;;;9.52;83.32;97699.56;5028559;28;20183;-76
2022/11/09 00:27:11;;;;;;;50.40;29.77;;;;;;;9.44;84.28;97698.94;5028072;28;20214;-76
2022/11/09 00:29:43;;;;;;;58.30;30.80;;;;;;;9.49;84.91;97701.41;5026435;28;20183;-76
2022/11/09 00:32:10;;;;;;;48.97;28.00;;;;;;;9.59;84.76;97701.06;5028283;28;20230;-76
2022/11/09 00:34:37;;;;;;;50.67;29.87;;;;;;;9.63;84.62;97705.25;5027384;28;20714;-76
2022/11/09 00:37:04;;;;;;;46.27;28.27;;;;;;;9.79;84.11;97700.41;5028512;28;20195;-75
2022/11/09 00:39:31;;;;;;;43.90;27.43;;;;;;;9.92;82.85;97704.31;5027580;28;20209;-76
2022/11/09 00:41:58;;;;;;;48.13;28.20;;;;;;;9.84;82.25;97658.00;5028496;28;20195;-75
2022/11/09 00:44:28;;;;;;;46.90;28.70;;;;;;;10.14;81.99;97691.56;5028062;28;20221;-76
2022/11/09 00:46:55;;;;;;;43.03;26.00;;;;;;;10.19;81.77;97689.66;5027787;28;20190;-76
2022/11/09 00:49:22;;;;;;;41.43;25.20;;;;;;;10.31;80.77;97697.00;5028512;28;20191;-75
2022/11/09 00:51:49;;;;;;;38.50;24.87;;;;;;;10.40;80.33;97694.09;5027186;28;20252;-76
2022/11/09 00:54:16;;;;;;;39.23;24.47;;;;;;;10.39;80.74;97682.03;5027153;28;20261;-76
2022/11/09 00:56:43;;;;;;;45.47;23.40;;;;;;;10.35;79.99;97686.47;5027151;28;20698;-76
2022/11/09 00:59:10;;;;;;;39.43;23.13;;;;;;;10.26;79.96;97685.97;5010880;28;20193;-76
2022/11/09 01:01:38;;;;;;;36.10;23.60;;;;;;;10.14;80.53;97694.16;5027951;28;20199;-76
2022/11/09 01:04:05;;;;;;;38.37;22.80;;;;;;;9.97;80.92;97679.16;5026493;28;20618;-76
2022/11/09 01:06:32;;;;;;;39.87;23.07;;;;;;;9.91;81.08;97683.66;5028128;28;20228;-76
2022/11/09 01:08:59;;;;;;;36.27;22.80;;;;;;;9.96;80.88;97686.94;5027133;28;20189;-76
2022/11/09 01:11:26;;;;;;;38.17;23.23;;;;;;;9.93;80.65;97687.06;5028183;28;20647;-76
2022/11/09 01:13:53;;;;;;;39.13;24.37;;;;;;;9.81;80.98;97686.53;5042378;28;20301;-76
2022/11/09 01:16:22;;;;;;;42.10;23.17;;;;;;;9.92;81.17;97696.56;5028110;28;20315;-76
2022/11/09 01:18:52;;;;;;;39.97;22.23;;;;;;;10.08;80.54;97686.53;5027384;28;20286;-76
2022/11/09 01:21:19;;;;;;;41.20;22.03;;;;;;;10.11;80.57;97686.47;5043070;28;20183;-76
2022/11/09 01:23:46;;;;;;;39.83;21.77;;;;;;;10.18;79.44;97673.25;5043302;28;20191;-76
2022/11/09 01:26:15;;;;;;;43.47;22.83;;;;;;;10.21;79.70;97691.28;5027007;28;20848;-76
2022/11/09 01:28:42;;;;;;;58.57;34.93;;;;;;;10.36;79.12;97682.16;5028076;28;20604;-76
2022/11/09 01:31:19;;;;;;;55.40;30.10;;;;;;;10.30;78.86;97684.97;5025597;28;20647;-76
2022/11/09 01:33:46;;;;;;;70.43;39.40;;;;;;;10.32;78.81;97677.97;5027808;28;20226;-76
2022/11/09 01:36:19;;;;;;;46.83;28.47;;;;;;;10.32;78.00;97670.22;5027142;28;20226;-75
2022/11/09 01:38:47;;;;;;;35.77;22.27;;;;;;;10.26;78.30;97675.59;5027507;28;20195;-76
2022/11/09 01:41:18;;;;;;;38.03;22.43;;;;;;;10.28;77.98;97676.41;5030554;28;20197;-78
2022/11/09 01:44:19;;;;;;;38.33;21.07;;;;;;;10.21;78.44;97678.34;5029134;28;20920;-78
2022/11/09 01:47:17;;;;;;;37.93;21.70;;;;;;;10.19;78.76;97674.13;5031482;28;20199;-76
2022/11/09 01:49:47;;;;;;;36.40;22.00;;;;;;;9.97;79.15;97673.97;5046629;28;20187;-77
2022/11/09 01:52:37;;;;;;;32.83;21.60;;;;;;;9.80;80.04;97674.53;5029119;28;20237;-77
2022/11/09 01:55:14;;;;;;;37.40;22.73;;;;;;;9.62;81.05;97675.09;5031256;28;20189;-78
2022/11/09 01:57:56;;;;;;;41.70;22.53;;;;;;;9.54;81.55;97679.66;5028953;28;20217;-77
2022/11/09 02:00:23;;;;;;;39.27;21.80;;;;;;;9.33;81.86;97674.34;5029540;28;20583;-75
2022/11/09 02:03:08;;;;;;;37.57;23.63;;;;;;;9.27;81.79;97671.94;5029917;28;20813;-75
2022/11/09 02:05:37;;;;;;;37.00;22.33;;;;;;;9.18;81.82;97662.72;5028841;28;20202;-75
2022/11/09 02:08:06;;;;;;;44.87;23.37;;;;;;;9.00;82.37;97665.84;5030024;28;20225;-77
2022/11/09 02:10:46;;;;;;;42.37;24.83;;;;;;;8.89;83.41;97673.06;5030017;28;20191;-78
2022/11/09 02:13:18;;;;;;;41.00;23.57;;;;;;;8.92;83.55;97678.97;5029562;28;20185;-79
2022/11/09 02:16:07;;;;;;;48.00;25.47;;;;;;;9.10;82.97;97667.28;5016309;28;20233;-78
2022/11/09 02:18:35;;;;;;;43.43;24.80;;;;;;;9.22;82.99;97668.63;5045059;28;20187;-78
2022/11/09 02:21:02;;;;;;;49.40;25.60;;;;;;;9.37;82.36;97678.50;5030823;28;20190;-80
2022/11/09 02:23:29;;;;;;;44.20;25.43;;;;;;;9.50;82.02;97672.06;5029789;28;20190;-79
2022/11/09 02:26:02;;;;;;;44.30;26.70;;;;;;;9.67;81.24;97678.38;5013005;28;20264;-79
2022/11/09 02:28:31;;;;;;;40.43;24.60;;;;;;;9.86;80.28;97681.22;5028684;28;20213;-78
2022/11/09 02:30:58;;;;;;;44.17;25.77;;;;;;;9.79;80.37;97678.00;5028835;28;20187;-78
2022/11/09 02:33:25;;;;;;;39.53;25.47;;;;;;;9.58;82.17;97683.84;5062500;28;20218;-78
2022/11/09 02:35:53;;;;;;;42.80;25.13;;;;;;;9.74;81.80;97682.50;5029483;28;20226;-78
2022/11/09 02:38:20;;;;;;;44.13;25.57;;;;;;;9.91;81.27;97679.34;5029279;28;20557;-77
2022/11/09 02:40:51;;;;;;;38.57;24.53;;;;;;;10.11;80.53;97682.16;5029393;28;20198;-79
2022/11/09 02:43:19;;;;;;;40.90;24.10;;;;;;;10.08;80.54;97671.00;5045885;28;20278;-78
2022/11/09 02:45:47;;;;;;;45.77;26.50;;;;;;;10.10;80.41;97684.75;5045371;28;20183;-78
2022/11/09 02:48:14;;;;;;;43.90;26.23;;;;;;;10.26;80.09;97686.78;5029720;28;20677;-79
2022/11/09 02:50:41;;;;;;;43.93;27.40;;;;;;;10.33;79.48;97682.25;5062387;28;20205;-78
2022/11/09 02:53:07;;;;;;;47.87;27.17;;;;;;;10.12;78.86;97636.41;5029093;28;20186;-76
2022/11/09 02:55:39;;;;;;;42.37;27.37;;;;;;;10.21;79.70;97675.75;5045443;28;20755;-77
2022/11/09 02:58:07;;;;;;;40.70;24.90;;;;;;;10.22;79.55;97674.03;5044259;28;20272;-77
2022/11/09 03:00:35;;;;;;;43.70;25.80;;;;;;;10.17;79.46;97675.91;5045721;28;20588;-76
2022/11/09 03:03:02;;;;;;;44.60;27.50;;;;;;;10.21;79.66;97677.50;5029679;28;20198;-77
2022/11/09 03:05:29;;;;;;;40.80;24.13;;;;;;;9.89;80.12;97633.72;5044915;28;20208;-76
2022/11/09 03:08:01;;;;;;;43.10;26.37;;;;;;;10.27;79.95;97687.63;5028770;28;20273;-77
2022/11/09 03:10:30;;;;;;;37.40;25.07;;;;;;;10.32;79.88;97683.16;5027445;28;20264;-76
2022/11/09 03:12:57;;;;;;;43.80;27.77;;;;;;;10.40;78.99;97683.75;5028673;28;20225;-77
2022/11/09 03:15:24;;;;;;;44.80;27.87;;;;;;;10.37;78.69;97689.88;5044178;28;20309;-77
2022/11/09 03:17:51;;;;;;;41.70;25.40;;;;;;;10.41;79.21;97694.03;5045199;28;20554;-77
2022/11/09 03:20:19;;;;;;;42.57;24.47;;;;;;;10.43;79.67;97688.78;5027908;28;20193;-79
2022/11/09 03:22:47;;;;;;;35.77;22.20;;;;;;;10.40;79.11;97683.75;5029383;28;20189;-79
2022/11/09 03:25:14;;;;;;;33.97;20.70;;;;;;;10.39;79.38;97695.84;5029632;28;20198;-79
2022/11/09 03:27:41;;;;;;;41.77;22.53;;;;;;;10.18;79.77;97688.78;5047941;28;20217;-78
2022/11/09 03:30:09;;;;;;;37.60;22.93;;;;;;;10.06;80.57;97689.16;5070035;28;20196;-76
2022/11/09 03:32:36;;;;;;;34.23;21.50;;;;;;;9.89;80.92;97690.63;5050242;28;20271;-77
2022/11/09 03:35:05;;;;;;;42.77;22.37;;;;;;;9.93;80.94;97687.91;5085006;28;20182;-76
2022/11/09 03:37:32;;;;;;;33.57;21.93;;;;;;;10.08;80.85;97686.53;5068689;28;20252;-76
2022/11/09 03:39:59;;;;;;;35.67;21.33;;;;;;;10.21;80.55;97691.28;5068802;28;20666;-76
2022/11/09 03:42:26;;;;;;;33.97;22.37;;;;;;;10.07;80.13;97687.44;5069000;28;20628;-75
2022/11/09 03:44:53;;;;;;;43.73;23.73;;;;;;;10.03;80.15;97696.19;5067091;28;20658;-75
2022/11/09 03:47:19;;;;;;;37.27;22.23;;;;;;;10.04;79.79;97692.69;5069047;28;20196;-75
2022/11/09 03:49:46;;;;;;;39.57;22.87;;;;;;;10.03;80.20;97702.22;5068121;28;20192;-75
2022/11/09 03:52:13;;;;;;;37.13;21.90;;;;;;;9.94;80.07;97699.06;5084653;28;20189;-76
2022/11/09 03:54:40;;;;;;;40.43;22.60;;;;;;;9.98;79.63;97696.34;5067838;28;20185;-76
2022/11/09 03:57:07;;;;;;;38.03;21.83;;;;;;;9.79;79.81;97690.06;5068866;28;20209;-75
2022/11/09 03:59:35;;;;;;;40.23;22.93;;;;;;;9.60;80.00;97694.97;5068478;28;20242;-75
2022/11/09 04:02:01;;;;;;;37.67;23.73;;;;;;;9.54;80.88;97692.59;5068229;28;20591;-75
2022/11/09 04:04:28;;;;;;;41.43;23.57;;;;;;;9.56;80.76;97695.97;5068507;28;20185;-75
2022/11/09 04:06:55;;;;;;;41.17;23.80;;;;;;;9.59;80.78;97692.44;5066114;28;20884;-75
2022/11/09 04:09:22;;;;;;;41.80;23.87;;;;;;;9.43;80.90;97692.09;5067449;28;20877;-75
2022/11/09 04:11:49;;;;;;;43.33;24.03;;;;;;;9.47;81.11;97698.88;5067668;28;20193;-77
2022/11/09 04:14:16;;;;;;;40.40;23.87;;;;;;;9.63;80.46;97696.63;5067323;28;20182;-76
2022/11/09 04:16:43;;;;;;;40.03;24.40;;;;;;;9.78;80.03;97694.44;5068134;28;20217;-79
2022/11/09 04:19:09;;;;;;;46.07;25.27;;;;;;;9.83;79.55;97691.66;5068276;28;20221;-78
2022/11/09 04:21:36;;;;;;;43.23;25.17;;;;;;;9.81;79.38;97688.28;5063888;28;20220;-78
2022/11/09 04:24:04;;;;;;;43.43;25.03;;;;;;;9.65;80.18;97692.25;5039890;28;20189;-77
2022/11/09 04:26:30;;;;;;;43.67;25.97;;;;;;;9.69;80.13;97686.94;5028648;28;20187;-76
2022/11/09 04:28:57;;;;;;;43.13;26.80;;;;;;;9.67;80.86;97690.47;5040648;28;20832;-75
2022/11/09 04:31:24;;;;;;;44.83;27.10;;;;;;;9.69;80.88;97681.78;5046556;28;20247;-75
2022/11/09 04:33:54;;;;;;;41.17;25.03;;;;;;;9.64;80.60;97678.47;5027442;28;20227;-76
2022/11/09 04:36:21;;;;;;;42.43;24.20;;;;;;;9.33;81.21;97670.00;5026779;28;20275;-76
2022/11/09 04:38:48;;;;;;;42.40;25.33;;;;;;;9.46;81.73;97683.41;5028359;28;20186;-76
2022/11/09 04:41:15;;;;;;;43.27;23.40;;;;;;;9.44;82.23;97688.59;5027721;28;20186;-76
2022/11/09 04:43:42;;;;;;;45.30;26.10;;;;;;;9.47;82.08;97683.34;5052804;28;20240;-76
2022/11/09 04:46:09;;;;;;;38.13;23.43;;;;;;;9.30;82.06;97652.00;5066028;28;20204;-76
2022/11/09 04:48:35;;;;;;;40.53;23.13;;;;;;;9.49;82.49;97685.88;5067994;28;20636;-76
2022/11/09 04:51:09;;;;;;;47.87;27.23;;;;;;;9.54;82.02;97695.19;5067238;28;20220;-77
2022/11/09 04:53:36;;;;;;;41.43;23.30;;;;;;;9.53;81.83;97688.34;5068175;28;20598;-76
2022/11/09 04:56:04;;;;;;;42.50;23.33;;;;;;;9.69;81.70;97688.69;5067954;28;20965;-76
2022/11/09 04:58:31;;;;;;;39.63;24.47;;;;;;;9.75;81.18;97693.66;5066100;28;20185;-76
2022/11/09 05:01:11;;;;;;;44.57;24.90;;;;;;;9.77;80.84;97691.88;5059618;28;20286;-76
2022/11/09 05:03:38;;;;;;;45.10;25.87;;;;;;;9.76;80.85;97696.22;5026658;28;20202;-76
2022/11/09 05:08:53;;;;;;;47.97;25.37;;;;;;;10.05;80.41;97705.63;5048639;28;20201;-75
2022/11/09 05:11:21;;;;;;;48.07;25.40;;;;;;;10.16;79.77;97703.53;5034240;28;20210;-75
2022/11/09 05:13:50;;;;;;;43.33;24.33;;;;;;;10.09;79.35;97714.13;5028121;28;20191;-75
2022/11/09 05:16:18;;;;;;;48.33;24.87;;;;;;;10.17;79.32;97714.72;5044982;28;20344;-75
2022/11/09 05:18:45;;;;;;;38.73;24.13;;;;;;;10.20;78.73;97712.06;5031791;28;20190;-75
2022/11/09 05:21:12;;;;;;;46.03;24.73;;;;;;;10.24;78.65;97711.06;5030567;28;20586;-75
2022/11/09 05:23:58;;;;;;;43.80;26.33;;;;;;;10.24;78.24;97713.66;5036782;28;20657;-74
2022/11/09 05:26:31;;;;;;;42.63;26.40;;;;;;;10.17;78.43;97715.59;5035482;28;20197;-78
2022/11/09 05:28:59;;;;;;;42.53;25.13;;;;;;;10.03;78.60;97722.06;5065373;28;20201;-78
2022/11/09 05:31:27;;;;;;;40.30;24.37;;;;;;;10.02;79.33;97712.59;5051423;28;20748;-78
2022/11/09 05:33:55;;;;;;;58.70;26.87;;;;;;;10.16;79.04;97715.66;5081987;28;20257;-79
2022/11/09 05:36:22;;;;;;;45.10;26.50;;;;;;;10.25;78.09;97720.50;5051191;28;20729;-78
2022/11/09 05:38:49;;;;;;;54.83;29.33;;;;;;;10.37;78.44;97727.84;5082286;28;20187;-79
2022/11/09 05:41:16;;;;;;;55.07;31.13;;;;;;;10.43;77.78;97730.22;5051152;28;20665;-79
2022/11/09 05:43:44;;;;;;;43.40;26.17;;;;;;;10.47;77.28;97732.66;5050681;28;20178;-79
2022/11/09 05:46:14;;;;;;;41.77;25.67;;;;;;;10.43;78.34;97732.81;5050337;28;20182;-79
2022/11/09 05:48:41;;;;;;;44.00;26.73;;;;;;;10.50;78.00;97729.97;5066195;28;20182;-78
2022/11/09 05:51:11;;;;;;;46.20;26.90;;;;;;;10.55;77.15;97730.66;5049813;28;20186;-76
2022/11/09 05:53:38;;;;;;;55.40;28.83;;;;;;;10.56;77.90;97736.69;5050651;28;20262;-80
2022/11/09 05:56:13;;;;;;;46.97;26.53;;;;;;;10.57;78.01;97734.03;5049444;28;20724;-76
2022/11/09 05:58:40;;;;;;;40.97;27.37;;;;;;;10.64;76.95;97726.91;5048787;28;20198;-79
2022/11/09 06:01:10;;;;;;;43.23;26.77;;;;;;;10.69;76.83;97732.78;5081989;28;20273;-79
2022/11/09 06:03:37;;;;;;;48.30;25.83;;;;;;;10.67;77.28;97737.16;5050097;28;20276;-78
2022/11/09 06:06:06;;;;;;;43.33;26.07;;;;;;;10.74;77.66;97740.41;5053353;28;20194;-79
2022/11/09 06:08:35;;;;;;;43.13;27.23;;;;;;;10.80;77.36;97741.00;5049276;28;20186;-78
2022/11/09 06:11:05;;;;;;;55.70;30.90;;;;;;;10.78;77.15;97742.78;5050324;28;20187;-77
2022/11/09 06:13:32;;;;;;;50.83;28.27;;;;;;;10.87;76.55;97742.47;5049116;28;20247;-79
2022/11/09 06:16:02;;;;;;;51.17;26.03;;;;;;;10.90;76.33;97739.75;5065406;28;20196;-79
2022/11/09 06:18:30;;;;;;;50.20;27.03;;;;;;;10.73;76.73;97742.13;5049827;28;20229;-78
2022/11/09 06:21:00;;;;;;;43.10;26.10;;;;;;;10.58;77.53;97756.47;5048174;28;20187;-79
2022/11/09 06:23:28;;;;;;;42.60;25.90;;;;;;;10.55;77.61;97756.56;5049030;28;20181;-77
2022/11/09 06:26:06;;;;;;;42.73;26.40;;;;;;;10.67;77.34;97765.66;5048898;28;20196;-78
2022/11/09 06:28:33;;;;;;;45.60;25.47;;;;;;;10.64;76.86;97739.84;5050404;28;20186;-79
2022/11/09 06:31:02;;;;;;;52.00;30.77;;;;;;;10.84;76.61;97752.94;5049537;28;20273;-80
2022/11/09 06:33:30;;;;;;;58.80;30.07;;;;;;;10.98;76.27;97748.13;5049901;28;20226;-79
2022/11/09 06:35:58;;;;;;;43.87;24.67;;;;;;;11.19;75.45;97757.72;5049914;28;20190;-78
2022/11/09 06:38:25;;;;;;;45.23;26.23;;;;;;;11.15;74.78;97758.72;5049125;28;20249;-78
2022/11/09 06:40:54;;;;;;;44.33;26.30;;;;;;;11.20;75.37;97761.16;5050033;28;20386;-75
2022/11/09 06:43:21;;;;;;;50.97;29.17;;;;;;;11.33;74.64;97771.00;5047507;28;20202;-78
2022/11/09 06:45:50;;;;;;;54.33;29.27;;;;;;;11.37;75.13;97769.97;5049794;28;20222;-77
2022/11/09 06:48:17;;;;;;;47.73;30.37;;;;;;;11.24;75.23;97770.50;5048691;28;20657;-77
2022/11/09 06:50:44;;;;;;;62.30;33.17;;;;;;;11.23;75.11;97764.47;5049330;28;20273;-76
2022/11/09 06:53:12;;;;;;;59.70;33.90;;;;;;;11.52;74.50;97767.75;5049200;28;20194;-76
2022/11/09 06:55:40;;;;;;;58.07;33.03;;;;;;;11.48;74.54;97766.16;5048635;28;20186;-75
2022/11/09 06:58:14;;;;;;;57.27;32.37;;;;;;;11.47;74.38;97760.13;5049410;28;20221;-77
2022/11/09 07:00:45;;;;;;;55.87;32.87;;;;;;;11.55;74.86;97757.22;5048341;28;20196;-77
2022/11/09 07:03:16;;;;;;;63.93;32.13;;;;;;;11.68;73.78;97759.34;5049266;28;20197;-78
2022/11/09 07:05:45;;;;;;;62.73;34.67;;;;;;;11.69;74.32;97770.56;5048348;28;20275;-79
2022/11/09 07:08:13;;;;;;;68.33;36.17;;;;;;;11.58;75.38;97763.13;5048998;28;20185;-78
2022/11/09 07:10:40;;;;;;;65.63;35.93;;;;;;;11.89;74.10;97762.88;5049419;28;20247;-77
2022/11/09 07:13:07;;;;;;;52.33;32.67;;;;;;;11.97;73.76;97760.81;5048411;28;20183;-79
2022/11/09 07:15:35;;;;;;;56.60;34.30;;;;;;;12.06;73.33;97750.88;5049343;28;20186;-75
2022/11/09 07:18:05;;;;;;;62.07;35.83;;;;;;;12.10;73.63;97754.19;5048235;28;20714;-80
2022/11/09 07:20:33;;;;;;;79.23;38.83;;;;;;;12.28;72.45;97762.09;5049113;28;20744;-79
2022/11/09 07:23:00;;;;;;;60.10;36.33;;;;;;;12.41;73.24;97756.38;5048238;28;20184;-80
2022/11/09 07:25:26;;;;;;;75.00;40.53;;;;;;;12.47;72.36;97741.38;5048584;28;20673;-78
2022/11/09 07:27:53;;;;;;;69.40;41.23;;;;;;;12.53;72.04;97743.72;5048537;28;20812;-79
2022/11/09 07:30:20;;;;;;;65.20;37.10;;;;;;;12.57;72.17;97749.66;5046596;28;20280;-77
2022/11/09 07:32:47;;;;;;;68.97;40.10;;;;;;;12.60;72.41;97752.97;5048648;28;20238;-80
2022/11/09 07:35:34;;;;;;;70.23;40.63;;;;;;;12.56;72.06;97751.41;5077884;28;20285;-77
2022/11/09 07:38:01;;;;;;;77.90;40.63;;;;;;;12.70;72.29;97749.06;5045529;28;20701;-78
2022/11/09 07:40:29;;;;;;;67.40;37.67;;;;;;;12.81;71.43;97751.19;5045197;28;20179;-77
2022/11/09 07:43:01;;;;;;;72.33;39.23;;;;;;;12.78;71.75;97749.56;5045715;28;20297;-77
2022/11/09 07:45:30;;;;;;;67.37;37.63;;;;;;;12.70;71.63;97730.88;5047508;28;20282;-79
2022/11/09 07:47:58;;;;;;;65.47;34.77;;;;;;;12.85;71.36;97753.59;5045827;28;20284;-77
2022/11/09 07:50:27;;;;;;;67.57;34.33;;;;;;;12.95;71.52;97756.63;5047480;28;20296;-77
2022/11/09 07:52:58;;;;;;;77.57;39.47;;;;;;;13.10;70.80;97749.97;5044329;28;20197;-77
2022/11/09 07:55:27;;;;;;;72.07;36.57;;;;;;;12.84;72.04;97735.47;5045832;28;20214;-78
2022/11/09 07:58:00;;;;;;;64.20;36.07;;;;;;;13.15;70.92;97756.63;5060939;28;20275;-78
2022/11/09 08:00:29;;;;;;;72.90;36.13;;;;;;;13.33;70.16;97745.44;5046548;28;20687;-80
2022/11/09 08:02:56;;;;;;;64.13;35.53;;;;;;;13.61;69.84;97761.47;5047471;28;20677;-77
2022/11/09 08:05:24;;;;;;;61.27;33.17;;;;;;;13.75;69.05;97755.59;5027346;28;20193;-77
2022/11/09 08:07:59;;;;;;;57.33;33.67;;;;;;;13.80;69.43;97761.44;5061949;28;20196;-77
2022/11/09 08:10:28;;;;;;;58.70;33.87;;;;;;;13.93;68.50;97761.72;5045256;28;20264;-79
2022/11/09 08:13:00;;;;;;;67.83;39.00;;;;;;;13.96;67.87;97756.34;5046798;28;20585;-79
2022/11/09 08:15:27;;;;;;;76.57;41.40;;;;;;;14.09;67.94;97758.31;5046206;28;20250;-77
2022/11/09 08:17:58;;;;;;;65.00;37.67;;;;;;;14.21;67.17;97757.72;5046201;28;20704;-79
2022/11/09 08:20:26;;;;;;;67.57;35.07;;;;;;;14.36;67.58;97756.97;5046847;28;20699;-77
2022/11/09 08:22:53;;;;;;;51.63;29.53;;;;;;;14.52;66.84;97757.91;5045468;28;20240;-76
2022/11/09 08:25:24;;;;;;;48.73;28.83;;;;;;;14.00;67.98;97756.13;5045244;28;20290;-76
2022/11/09 08:27:51;;;;;;;50.37;29.67;;;;;;;14.17;67.79;97758.78;5043483;28;20296;-78
2022/11/09 08:30:20;;;;;;;42.53;26.27;;;;;;;14.30;67.50;97753.84;5045344;28;20197;-77
2022/11/09 08:32:48;;;;;;;38.40;22.93;;;;;;;14.30;67.78;97751.25;5045686;28;20247;-79
2022/11/09 08:35:19;;;;;;;32.50;21.50;;;;;;;14.30;67.82;97752.06;5045668;28;20204;-77
2022/11/09 08:37:48;;;;;;;39.03;22.73;;;;;;;14.50;67.46;97743.28;5045294;28;20217;-78
2022/11/09 08:40:17;;;;;;;46.20;25.90;;;;;;;14.86;66.03;97746.59;5043331;28;20283;-78
2022/11/09 08:42:45;;;;;;;38.13;23.63;;;;;;;14.83;65.74;97719.84;5046267;28;20196;-79
2022/11/09 08:45:12;;;;;;;41.73;24.63;;;;;;;15.21;64.85;97743.00;5043490;28;20629;-79
2022/11/09 08:47:40;;;;;;;43.40;26.97;;;;;;;15.27;64.32;97755.72;5028596;28;20193;-80
2022/11/09 08:50:08;;;;;;;52.93;28.23;;;;;;;15.43;63.62;97734.91;5048353;28;20186;-78
2022/11/09 08:52:36;;;;;;;41.97;26.93;;;;;;;15.20;64.45;97745.69;5064766;28;20190;-79
2022/11/09 08:55:04;;;;;;;45.80;27.80;;;;;;;15.35;64.46;97742.28;5065745;28;20186;-79
2022/11/09 08:57:31;;;;;;;57.90;28.93;;;;;;;15.54;64.13;97743.00;5047017;28;20720;-78
2022/11/09 08:59:58;;;;;;;44.47;26.33;;;;;;;15.66;63.40;97744.94;5050532;28;20265;-80
2022/11/09 09:02:24;;;;;;;40.07;24.60;;;;;;;15.80;62.92;97741.56;5049045;28;20190;-79
2022/11/09 09:04:51;;;;;;;47.30;27.77;;;;;;;15.98;62.14;97751.00;5050427;28;20268;-78
2022/11/09 09:07:18;;;;;;;45.77;26.90;;;;;;;15.95;62.29;97735.50;5049277;28;20198;-79
2022/11/09 09:09:45;;;;;;;40.13;25.17;;;;;;;16.12;61.97;97744.06;5049931;28;20688;-77
2022/11/09 09:12:12;;;;;;;47.53;26.97;;;;;;;16.10;61.68;97745.94;5050255;28;20232;-78
2022/11/09 09:14:39;;;;;;;42.33;27.30;;;;;;;16.18;62.10;97743.72;5048139;28;20288;-79
2022/11/09 09:17:06;;;;;;;41.53;25.67;;;;;;;16.27;61.21;97743.22;5082293;28;20194;-79
2022/11/09 09:19:34;;;;;;;37.93;22.87;;;;;;;16.17;61.55;97742.06;5048260;28;20213;-79
2022/11/09 09:22:01;;;;;;;36.13;22.63;;;;;;;16.13;61.66;97727.47;5050065;28;20302;-76
2022/11/09 09:24:28;;;;;;;38.90;25.30;;;;;;;16.22;61.54;97720.84;5047021;28;20578;-76
2022/11/09 09:26:55;;;;;;;46.43;26.73;;;;;;;16.43;61.05;97734.47;5049288;28;20536;-76
2022/11/09 09:29:22;;;;;;;43.13;24.33;;;;;;;16.10;61.93;97740.69;5049298;28;20204;-77
2022/11/09 09:31:49;;;;;;;39.77;23.47;;;;;;;16.12;62.09;97733.63;5048812;28;20599;-77
2022/11/09 09:34:16;;;;;;;45.97;25.97;;;;;;;16.25;61.80;97724.16;5050271;28;20220;-75
2022/11/09 09:36:43;;;;;;;37.80;23.30;;;;;;;16.29;61.94;97733.50;5048020;28;20228;-76
2022/11/09 09:39:14;;;;;;;35.63;22.57;;;;;;;16.37;61.63;97722.59;5048422;28;20613;-76
2022/11/09 09:41:50;;;;;;;33.13;20.47;;;;;;;16.39;61.28;97715.50;5048383;28;20296;-78
2022/11/09 09:44:31;;;;;;;32.57;18.77;;;;;;;16.30;61.31;97716.88;5049380;28;20196;-77
2022/11/09 09:47:23;;;;;;;22.33;14.43;;;;;;;16.38;60.73;97721.69;5064324;28;20205;-78
2022/11/09 09:50:49;;;;;;;27.00;16.73;;;;;;;16.63;59.89;97714.09;5047601;28;20328;-79
2022/11/09 09:53:41;;;;;;;27.13;16.17;;;;;;;16.53;60.20;97712.97;5025142;28;20195;-78
2022/11/09 09:56:32;;;;;;;28.83;19.13;;;;;;;16.44;61.12;97713.47;5026827;28;20206;-76
2022/11/09 09:59:02;;;;;;;36.40;21.97;;;;;;;16.38;61.30;97690.31;5044401;28;20229;-80
2022/11/09 10:01:45;;;;;;;33.27;18.87;;;;;;;16.50;60.91;97691.38;5048489;28;20210;-79
2022/11/09 10:04:16;;;;;;;25.77;17.00;;;;;;;16.47;60.95;97705.44;5048997;28;20198;-75
2022/11/09 10:06:50;;;;;;;30.20;18.53;;;;;;;16.54;60.32;97695.50;5047563;28;20202;-77
2022/11/09 10:09:19;;;;;;;26.43;18.30;;;;;;;16.47;61.13;97695.00;5048900;28;20697;-79
2022/11/09 10:11:58;;;;;;;29.50;16.37;;;;;;;16.08;60.94;97658.09;5062299;28;20289;-76
2022/11/09 10:14:44;;;;;;;30.10;17.27;;;;;;;16.45;60.65;97690.78;5048700;28;20182;-77
2022/11/09 10:17:29;;;;;;;33.17;18.17;;;;;;;16.46;61.18;97685.47;5048734;28;20251;-76
2022/11/09 10:20:09;;;;;;;31.87;17.37;;;;;;;16.68;59.97;97679.84;5047320;28;20248;-77
2022/11/09 10:22:52;;;;;;;31.83;17.63;;;;;;;17.03;59.35;97684.63;5064084;28;20198;-76
2022/11/09 10:25:27;;;;;;;28.03;16.37;;;;;;;17.17;58.36;97683.75;5047752;28;20191;-77
2022/11/09 10:28:15;;;;;;;25.90;15.33;;;;;;;16.76;59.54;97680.22;5046943;28;20233;-77
2022/11/09 10:30:43;;;;;;;24.30;15.47;;;;;;;17.01;58.59;97685.66;5048933;28;20236;-76
2022/11/09 10:33:10;;;;;;;24.23;15.50;;;;;;;16.76;59.67;97677.59;5079261;28;20222;-77
2022/11/09 10:35:44;;;;;;;29.93;18.47;;;;;;;16.86;58.94;97682.19;5048633;28;20198;-77
2022/11/09 10:38:16;;;;;;;21.97;15.17;;;;;;;16.88;59.28;97666.38;5047193;28;20661;-77
2022/11/09 10:40:59;;;;;;;25.50;15.40;;;;;;;17.09;58.51;97667.69;5048189;28;20227;-80
2022/11/09 10:43:44;;;;;;;20.97;14.33;;;;;;;17.30;57.72;97673.38;5048190;28;20784;-77
2022/11/09 10:46:30;;;;;;;20.73;14.37;;;;;;;17.27;58.35;97670.97;5046604;28;20200;-78
2022/11/09 10:49:20;;;;;;;22.03;14.53;;;;;;;17.68;56.91;97669.22;5048382;28;20352;-79
2022/11/09 10:52:29;;;;;;;22.80;16.50;;;;;;;17.45;57.84;97657.56;5080522;28;20823;-80
2022/11/09 10:55:27;;;;;;;24.00;15.33;;;;;;;17.70;56.78;97647.22;5046732;28;20215;-80
2022/11/09 10:58:39;;;;;;;20.83;14.03;;;;;;;17.93;56.11;97663.25;5046520;28;20572;-79
2022/11/09 11:01:35;;;;;;;24.13;14.90;;;;;;;17.87;56.40;97662.69;5080465;28;20245;-78
2022/11/09 11:04:27;;;;;;;22.17;13.60;;;;;;;17.40;56.96;97662.22;5047766;28;20194;-81
2022/11/09 11:07:18;;;;;;;23.60;14.87;;;;;;;17.37;57.42;97657.19;5078866;28;20200;-81
2022/11/09 11:10:24;;;;;;;27.47;16.43;;;;;;;17.50;57.21;97650.28;5048419;28;20567;-77
2022/11/09 11:13:09;;;;;;;27.10;16.67;;;;;;;17.26;57.92;97654.41;5044678;28;20199;-78
2022/11/09 11:15:55;;;;;;;28.10;18.90;;;;;;;17.28;57.61;97643.84;5046661;28;20582;-77
2022/11/09 11:18:45;;;;;;;29.37;17.53;;;;;;;17.26;58.11;97643.94;5046992;28;20241;-78
2022/11/09 11:21:31;;;;;;;28.57;17.37;;;;;;;17.17;57.84;97631.41;5046013;28;20195;-77
2022/11/09 11:24:18;;;;;;;25.53;17.57;;;;;;;17.32;57.55;97634.84;5059877;28;20681;-75
2022/11/09 11:27:13;;;;;;;36.30;21.00;;;;;;;17.39;57.63;97628.31;5047678;28;20189;-76
2022/11/09 11:30:13;;;;;;;28.67;17.07;;;;;;;17.54;56.78;97625.56;5046334;28;20254;-83
2022/11/09 11:32:58;;;;;;;31.13;18.43;;;;;;;17.73;56.46;97614.75;5046363;28;20229;-77
2022/11/09 11:35:52;;;;;;;36.50;18.80;;;;;;;17.80;56.56;97622.09;5047598;28;20225;-77
2022/11/09 11:38:40;;;;;;;35.00;18.73;;;;;;;17.66;56.10;97606.44;5058987;28;20229;-78
2022/11/09 11:41:37;;;;;;;31.93;18.27;;;;;;;17.79;56.27;97622.19;5046959;28;20274;-78